sensor_id;sensor_type;location;lat;lon;timestamp;pressure;altitude;pressure_sealevel;temperature;humidity
66689;BME280;53587;59.318;18.084;2022-07-29T00:02:25;102300.25;;;16.47;nan
66689;BME280;53587;59.318;18.084;2022-07-29T00:04:50;102296.75;;;18.01;nan
66689;BME280;53587;59.318;18.084;2022-07-29T00:07:15;102288.81;;;17.53;nan
66689;BME280;53587;59.318;18.084;2022-07-29T00:09:40;102298.88;;;15.42;nan
66689;BME280;53587;59.318;18.084;2022-07-29T00:12:05;102303.16;;;15.92;nan
66689;BME280;53587;59.318;18.084;2022-07-29T00:14:31;102294.88;;;16.81;nan
66689;BME280;53587;59.318;18.084;2022-07-29T00:16:56;102301.69;;;17.99;nan
66689;BME280;53587;59.318;18.084;2022-07-29T00:19:21;102299.22;;;18.19;nan
66689;BME280;53587;59.318;18.084;2022-07-29T00:21:46;102298.09;;;15.66;nan
66689;BME280;53587;59.318;18.084;2022-07-29T00:24:12;102305.03;;;15.68;nan
66689;BME280;53587;59.318;18.084;2022-07-29T00:26:37;102295.94;;;16.51;nan
66689;BME280;53587;59.318;18.084;2022-07-29T00:29:03;102292.97;;;18.07;nan
66689;BME280;53587;59.318;18.084;2022-07-29T00:31:29;102283.84;;;17.90;nan
66689;BME280;53587;59.318;18.084;2022-07-29T00:33:54;102291.78;;;15.23;nan
66689;BME280;53587;59.318;18.084;2022-07-29T00:36:20;102289.13;;;15.58;nan
66689;BME280;53587;59.318;18.084;2022-07-29T00:38:48;102292.22;;;16.86;nan
66689;BME280;53587;59.318;18.084;2022-07-29T00:41:14;102289.44;;;18.29;nan
66689;BME280;53587;59.318;18.084;2022-07-29T00:43:39;102283.03;;;17.72;nan
66689;BME280;53587;59.318;18.084;2022-07-29T00:46:05;102285.16;;;15.12;nan
66689;BME280;53587;59.318;18.084;2022-07-29T00:48:31;102281.44;;;15.60;nan
66689;BME280;53587;59.318;18.084;2022-07-29T00:50:57;102278.50;;;16.74;nan
66689;BME280;53587;59.318;18.084;2022-07-29T00:53:22;102280.97;;;18.18;nan
66689;BME280;53587;59.318;18.084;2022-07-29T00:55:48;102277.06;;;17.12;nan
66689;BME280;53587;59.318;18.084;2022-07-29T00:58:13;102283.97;;;15.08;nan
66689;BME280;53587;59.318;18.084;2022-07-29T01:00:39;102277.16;;;15.53;nan
66689;BME280;53587;59.318;18.084;2022-07-29T01:03:05;102278.81;;;16.89;nan
66689;BME280;53587;59.318;18.084;2022-07-29T01:05:31;102269.44;;;18.22;nan
66689;BME280;53587;59.318;18.084;2022-07-29T01:07:56;102270.69;;;17.58;nan
66689;BME280;53587;59.318;18.084;2022-07-29T01:10:22;102286.91;;;14.94;nan
66689;BME280;53587;59.318;18.084;2022-07-29T01:12:49;102281.41;;;15.37;nan
66689;BME280;53587;59.318;18.084;2022-07-29T01:15:14;102283.19;;;16.73;nan
66689;BME280;53587;59.318;18.084;2022-07-29T01:20:31;102278.47;;;17.15;nan
66689;BME280;53587;59.318;18.084;2022-07-29T01:25:54;102281.22;;;15.50;nan
66689;BME280;53587;59.318;18.084;2022-07-29T01:31:07;102271.53;;;18.54;nan
66689;BME280;53587;59.318;18.084;2022-07-29T01:33:41;102280.06;;;16.17;nan
66689;BME280;53587;59.318;18.084;2022-07-29T01:36:40;102274.19;;;15.12;nan
66689;BME280;53587;59.318;18.084;2022-07-29T01:39:14;102276.34;;;15.76;nan
66689;BME280;53587;59.318;18.084;2022-07-29T01:41:45;102269.66;;;17.64;nan
66689;BME280;53587;59.318;18.084;2022-07-29T01:44:20;102271.78;;;18.52;nan
66689;BME280;53587;59.318;18.084;2022-07-29T01:46:52;102273.56;;;16.47;nan
66689;BME280;53587;59.318;18.084;2022-07-29T01:49:24;102279.03;;;14.98;nan
66689;BME280;53587;59.318;18.084;2022-07-29T01:51:51;102272.84;;;15.45;nan
66689;BME280;53587;59.318;18.084;2022-07-29T01:54:25;102282.97;;;17.04;nan
66689;BME280;53587;59.318;18.084;2022-07-29T01:56:51;102270.34;;;18.05;nan
66689;BME280;53587;59.318;18.084;2022-07-29T01:59:18;102280.25;;;18.45;nan
66689;BME280;53587;59.318;18.084;2022-07-29T02:01:44;102279.22;;;15.69;nan
66689;BME280;53587;59.318;18.084;2022-07-29T02:04:11;102281.53;;;15.30;nan
66689;BME280;53587;59.318;18.084;2022-07-29T02:06:38;102281.53;;;15.84;nan
66689;BME280;53587;59.318;18.084;2022-07-29T02:09:03;102277.88;;;17.76;nan
66689;BME280;53587;59.318;18.084;2022-07-29T02:11:33;102279.16;;;18.24;nan
66689;BME280;53587;59.318;18.084;2022-07-29T02:14:00;102279.81;;;15.59;nan
66689;BME280;53587;59.318;18.084;2022-07-29T02:16:26;102288.47;;;15.02;nan
66689;BME280;53587;59.318;18.084;2022-07-29T02:18:53;102279.44;;;15.68;nan
66689;BME280;53587;59.318;18.084;2022-07-29T02:21:21;102287.06;;;17.47;nan
66689;BME280;53587;59.318;18.084;2022-07-29T02:23:48;102276.41;;;18.46;nan
66689;BME280;53587;59.318;18.084;2022-07-29T02:26:13;102280.84;;;17.74;nan
66689;BME280;53587;59.318;18.084;2022-07-29T02:28:39;102283.50;;;14.80;nan
66689;BME280;53587;59.318;18.084;2022-07-29T02:31:05;102278.25;;;15.09;nan
66689;BME280;53587;59.318;18.084;2022-07-29T02:33:31;102281.78;;;16.59;nan
66689;BME280;53587;59.318;18.084;2022-07-29T02:35:57;102276.88;;;17.99;nan
66689;BME280;53587;59.318;18.084;2022-07-29T02:38:23;102284.16;;;18.72;nan
66689;BME280;53587;59.318;18.084;2022-07-29T02:41:10;102281.94;;;15.57;nan
66689;BME280;53587;59.318;18.084;2022-07-29T02:43:36;102296.63;;;15.09;nan
66689;BME280;53587;59.318;18.084;2022-07-29T02:46:02;102288.91;;;15.72;nan
66689;BME280;53587;59.318;18.084;2022-07-29T02:48:36;102282.88;;;17.45;nan
66689;BME280;53587;59.318;18.084;2022-07-29T02:51:06;102284.69;;;18.46;nan
66689;BME280;53587;59.318;18.084;2022-07-29T02:53:33;102286.94;;;17.25;nan
66689;BME280;53587;59.318;18.084;2022-07-29T02:56:07;102286.63;;;14.84;nan
66689;BME280;53587;59.318;18.084;2022-07-29T02:58:39;102296.44;;;15.22;nan
66689;BME280;53587;59.318;18.084;2022-07-29T03:01:12;102292.31;;;16.62;nan
66689;BME280;53587;59.318;18.084;2022-07-29T03:03:39;102278.50;;;18.00;nan
66689;BME280;53587;59.318;18.084;2022-07-29T03:06:05;102294.38;;;18.71;nan
66689;BME280;53587;59.318;18.084;2022-07-29T03:08:31;102289.38;;;16.40;nan
66689;BME280;53587;59.318;18.084;2022-07-29T03:10:57;102301.06;;;14.91;nan
66689;BME280;53587;59.318;18.084;2022-07-29T03:13:22;102293.97;;;15.33;nan
66689;BME280;53587;59.318;18.084;2022-07-29T03:15:48;102305.88;;;16.93;nan
66689;BME280;53587;59.318;18.084;2022-07-29T03:18:14;102300.81;;;18.15;nan
66689;BME280;53587;59.318;18.084;2022-07-29T03:20:39;102296.75;;;18.01;nan
66689;BME280;53587;59.318;18.084;2022-07-29T03:23:05;102310.22;;;14.85;nan
66689;BME280;53587;59.318;18.084;2022-07-29T03:25:30;102311.88;;;15.05;nan
66689;BME280;53587;59.318;18.084;2022-07-29T03:27:56;102312.34;;;15.86;nan
66689;BME280;53587;59.318;18.084;2022-07-29T03:30:21;102305.75;;;17.45;nan
66689;BME280;53587;59.318;18.084;2022-07-29T03:32:47;102314.13;;;18.41;nan
66689;BME280;53587;59.318;18.084;2022-07-29T03:35:12;102314.41;;;17.37;nan
66689;BME280;53587;59.318;18.084;2022-07-29T03:37:37;102313.31;;;14.77;nan
66689;BME280;53587;59.318;18.084;2022-07-29T03:40:03;102318.59;;;15.09;nan
66689;BME280;53587;59.318;18.084;2022-07-29T03:42:30;102316.88;;;16.40;nan
66689;BME280;53587;59.318;18.084;2022-07-29T03:44:57;102308.19;;;17.76;nan
66689;BME280;53587;59.318;18.084;2022-07-29T03:47:24;102294.75;;;18.58;nan
66689;BME280;53587;59.318;18.084;2022-07-29T03:49:54;102307.31;;;16.83;nan
66689;BME280;53587;59.318;18.084;2022-07-29T03:52:21;102312.69;;;14.75;nan
66689;BME280;53587;59.318;18.084;2022-07-29T03:54:47;102316.81;;;15.14;nan
66689;BME280;53587;59.318;18.084;2022-07-29T03:57:13;102315.66;;;16.60;nan
66689;BME280;53587;59.318;18.084;2022-07-29T03:59:39;102304.13;;;17.95;nan
66689;BME280;53587;59.318;18.084;2022-07-29T04:02:05;102311.91;;;18.60;nan
66689;BME280;53587;59.318;18.084;2022-07-29T04:04:33;102308.94;;;17.08;nan
66689;BME280;53587;59.318;18.084;2022-07-29T04:06:59;102317.25;;;14.81;nan
66689;BME280;53587;59.318;18.084;2022-07-29T04:09:25;102324.34;;;15.50;nan
66689;BME280;53587;59.318;18.084;2022-07-29T04:11:50;102322.03;;;17.30;nan
66689;BME280;53587;59.318;18.084;2022-07-29T04:14:15;102320.13;;;18.77;nan
66689;BME280;53587;59.318;18.084;2022-07-29T04:16:41;102318.38;;;17.12;nan
66689;BME280;53587;59.318;18.084;2022-07-29T04:19:06;102325.75;;;16.18;nan
66689;BME280;53587;59.318;18.084;2022-07-29T04:21:36;102326.25;;;16.80;nan
66689;BME280;53587;59.318;18.084;2022-07-29T04:24:01;102316.84;;;18.80;nan
66689;BME280;53587;59.318;18.084;2022-07-29T04:26:26;102312.91;;;18.31;nan
66689;BME280;53587;59.318;18.084;2022-07-29T04:28:51;102321.69;;;15.85;nan
66689;BME280;53587;59.318;18.084;2022-07-29T04:31:17;102316.63;;;18.03;nan
66689;BME280;53587;59.318;18.084;2022-07-29T04:33:42;102314.53;;;18.94;nan
66689;BME280;53587;59.318;18.084;2022-07-29T04:36:07;102321.66;;;17.72;nan
66689;BME280;53587;59.318;18.084;2022-07-29T04:38:32;102321.88;;;17.08;nan
66689;BME280;53587;59.318;18.084;2022-07-29T04:40:57;102312.16;;;19.03;nan
66689;BME280;53587;59.318;18.084;2022-07-29T04:43:23;102314.47;;;18.66;nan
66689;BME280;53587;59.318;18.084;2022-07-29T04:45:48;102324.53;;;16.38;nan
66689;BME280;53587;59.318;18.084;2022-07-29T04:48:13;102318.44;;;16.88;nan
66689;BME280;53587;59.318;18.084;2022-07-29T04:50:38;102326.91;;;18.69;nan
66689;BME280;53587;59.318;18.084;2022-07-29T04:53:04;102319.59;;;19.02;nan
66689;BME280;53587;59.318;18.084;2022-07-29T04:55:30;102316.50;;;17.47;nan
66689;BME280;53587;59.318;18.084;2022-07-29T04:57:55;102292.69;;;15.59;nan
66689;BME280;53587;59.318;18.084;2022-07-29T05:00:20;102295.59;;;18.58;nan
66689;BME280;53587;59.318;18.084;2022-07-29T05:02:45;102286.72;;;19.28;nan
66689;BME280;53587;59.318;18.084;2022-07-29T05:05:11;102302.75;;;17.81;nan
66689;BME280;53587;59.318;18.084;2022-07-29T05:07:36;102299.53;;;15.68;nan
66689;BME280;53587;59.318;18.084;2022-07-29T05:10:01;102305.25;;;18.56;nan
66689;BME280;53587;59.318;18.084;2022-07-29T05:12:26;102302.91;;;19.46;nan
66689;BME280;53587;59.318;18.084;2022-07-29T05:14:52;102303.34;;;18.00;nan
66689;BME280;53587;59.318;18.084;2022-07-29T05:17:18;102302.06;;;15.93;nan
66689;BME280;53587;59.318;18.084;2022-07-29T05:19:43;102308.81;;;18.56;nan
66689;BME280;53587;59.318;18.084;2022-07-29T05:22:08;102301.25;;;19.18;nan
66689;BME280;53587;59.318;18.084;2022-07-29T05:24:34;102301.06;;;17.63;nan
66689;BME280;53587;59.318;18.084;2022-07-29T05:26:59;102300.94;;;15.59;nan
66689;BME280;53587;59.318;18.084;2022-07-29T05:29:24;102315.88;;;18.69;nan
66689;BME280;53587;59.318;18.084;2022-07-29T05:31:49;102314.25;;;19.18;nan
66689;BME280;53587;59.318;18.084;2022-07-29T05:34:16;102308.03;;;17.48;nan
66689;BME280;53587;59.318;18.084;2022-07-29T05:36:42;102314.22;;;15.74;nan
66689;BME280;53587;59.318;18.084;2022-07-29T05:39:07;102319.00;;;17.31;nan
66689;BME280;53587;59.318;18.084;2022-07-29T05:41:32;102316.88;;;19.07;nan
66689;BME280;53587;59.318;18.084;2022-07-29T05:43:57;102321.97;;;19.15;nan
66689;BME280;53587;59.318;18.084;2022-07-29T05:46:23;102326.25;;;17.20;nan
66689;BME280;53587;59.318;18.084;2022-07-29T05:48:48;102322.63;;;16.26;nan
66689;BME280;53587;59.318;18.084;2022-07-29T05:51:13;102327.38;;;19.05;nan
66689;BME280;53587;59.318;18.084;2022-07-29T05:53:39;102325.72;;;19.04;nan
66689;BME280;53587;59.318;18.084;2022-07-29T05:56:04;102319.88;;;17.03;nan
66689;BME280;53587;59.318;18.084;2022-07-29T05:58:30;102332.78;;;15.36;nan
66689;BME280;53587;59.318;18.084;2022-07-29T06:00:55;102333.84;;;17.76;nan
66689;BME280;53587;59.318;18.084;2022-07-29T06:03:24;102338.19;;;19.34;nan
66689;BME280;53587;59.318;18.084;2022-07-29T06:05:49;102332.38;;;19.08;nan
66689;BME280;53587;59.318;18.084;2022-07-29T06:08:14;102340.25;;;16.78;nan
66689;BME280;53587;59.318;18.084;2022-07-29T06:10:39;102336.28;;;15.55;nan
66689;BME280;53587;59.318;18.084;2022-07-29T06:13:05;102341.63;;;18.13;nan
66689;BME280;53587;59.318;18.084;2022-07-29T06:15:30;102335.47;;;19.39;nan
66689;BME280;53587;59.318;18.084;2022-07-29T06:17:55;102329.34;;;18.43;nan
66689;BME280;53587;59.318;18.084;2022-07-29T06:20:20;102335.31;;;16.28;nan
66689;BME280;53587;59.318;18.084;2022-07-29T06:22:45;102345.63;;;15.24;nan
66689;BME280;53587;59.318;18.084;2022-07-29T06:25:11;102339.25;;;18.61;nan
66689;BME280;53587;59.318;18.084;2022-07-29T06:27:36;102352.41;;;19.48;nan
66689;BME280;53587;59.318;18.084;2022-07-29T06:30:02;102351.56;;;17.97;nan
66689;BME280;53587;59.318;18.084;2022-07-29T06:32:28;102347.97;;;16.05;nan
66689;BME280;53587;59.318;18.084;2022-07-29T06:34:53;102357.84;;;16.77;nan
66689;BME280;53587;59.318;18.084;2022-07-29T06:37:18;102355.63;;;19.12;nan
66689;BME280;53587;59.318;18.084;2022-07-29T06:39:43;102358.97;;;19.14;nan
66689;BME280;53587;59.318;18.084;2022-07-29T06:42:08;102352.81;;;17.27;nan
66689;BME280;53587;59.318;18.084;2022-07-29T06:44:34;102353.38;;;15.57;nan
66689;BME280;53587;59.318;18.084;2022-07-29T06:46:59;102356.06;;;17.69;nan
66689;BME280;53587;59.318;18.084;2022-07-29T06:49:24;102359.50;;;19.39;nan
66689;BME280;53587;59.318;18.084;2022-07-29T06:51:51;102369.22;;;18.92;nan
66689;BME280;53587;59.318;18.084;2022-07-29T06:54:16;102365.78;;;16.62;nan
66689;BME280;53587;59.318;18.084;2022-07-29T06:56:41;102378.72;;;15.59;nan
66689;BME280;53587;59.318;18.084;2022-07-29T06:59:08;102361.00;;;18.58;nan
66689;BME280;53587;59.318;18.084;2022-07-29T07:01:34;102364.81;;;19.45;nan
66689;BME280;53587;59.318;18.084;2022-07-29T07:03:59;102362.69;;;17.85;nan
66689;BME280;53587;59.318;18.084;2022-07-29T07:06:25;102364.25;;;15.94;nan
66689;BME280;53587;59.318;18.084;2022-07-29T07:08:50;102377.84;;;16.84;nan
66689;BME280;53587;59.318;18.084;2022-07-29T07:11:15;102381.06;;;19.14;nan
66689;BME280;53587;59.318;18.084;2022-07-29T07:13:40;102387.13;;;19.11;nan
66689;BME280;53587;59.318;18.084;2022-07-29T07:16:06;102380.66;;;17.13;nan
66689;BME280;53587;59.318;18.084;2022-07-29T07:18:31;102375.41;;;15.69;nan
66689;BME280;53587;59.318;18.084;2022-07-29T07:20:57;102374.50;;;17.98;nan
66689;BME280;53587;59.318;18.084;2022-07-29T07:23:22;102376.72;;;19.19;nan
66689;BME280;53587;59.318;18.084;2022-07-29T07:25:48;102361.94;;;18.07;nan
66689;BME280;53587;59.318;18.084;2022-07-29T07:28:13;102364.72;;;15.91;nan
66689;BME280;53587;59.318;18.084;2022-07-29T07:30:39;102368.38;;;15.43;nan
66689;BME280;53587;59.318;18.084;2022-07-29T07:33:04;102366.38;;;18.87;nan
66689;BME280;53587;59.318;18.084;2022-07-29T07:35:29;102356.13;;;19.31;nan
66689;BME280;53587;59.318;18.084;2022-07-29T07:37:55;102355.72;;;17.66;nan
66689;BME280;53587;59.318;18.084;2022-07-29T07:40:20;102359.25;;;15.73;nan
66689;BME280;53587;59.318;18.084;2022-07-29T07:42:45;102353.59;;;17.10;nan
66689;BME280;53587;59.318;18.084;2022-07-29T07:45:11;102357.03;;;19.37;nan
66689;BME280;53587;59.318;18.084;2022-07-29T07:47:37;102355.31;;;18.64;nan
66689;BME280;53587;59.318;18.084;2022-07-29T07:50:06;102346.78;;;16.36;nan
66689;BME280;53587;59.318;18.084;2022-07-29T07:52:31;102351.06;;;15.42;nan
66689;BME280;53587;59.318;18.084;2022-07-29T07:54:56;102354.28;;;18.48;nan
66689;BME280;53587;59.318;18.084;2022-07-29T07:57:22;102346.56;;;19.44;nan
66689;BME280;53587;59.318;18.084;2022-07-29T07:59:47;102362.75;;;18.25;nan
66689;BME280;53587;59.318;18.084;2022-07-29T08:02:12;102353.97;;;16.02;nan
66689;BME280;53587;59.318;18.084;2022-07-29T08:04:37;102361.38;;;16.01;nan
66689;BME280;53587;59.318;18.084;2022-07-29T08:07:05;102369.06;;;19.04;nan
66689;BME280;53587;59.318;18.084;2022-07-29T08:09:30;102362.72;;;19.03;nan
66689;BME280;53587;59.318;18.084;2022-07-29T08:11:58;102360.09;;;17.04;nan
66689;BME280;53587;59.318;18.084;2022-07-29T08:14:24;102363.06;;;15.90;nan
66689;BME280;53587;59.318;18.084;2022-07-29T08:16:49;102364.84;;;18.57;nan
66689;BME280;53587;59.318;18.084;2022-07-29T08:19:15;102358.97;;;19.42;nan
66689;BME280;53587;59.318;18.084;2022-07-29T08:21:41;102361.78;;;18.14;nan
66689;BME280;53587;59.318;18.084;2022-07-29T08:24:06;102364.59;;;16.57;nan
66689;BME280;53587;59.318;18.084;2022-07-29T08:26:50;102362.38;;;18.38;nan
66689;BME280;53587;59.318;18.084;2022-07-29T08:29:15;102399.84;;;19.62;nan
66689;BME280;53587;59.318;18.084;2022-07-29T08:31:41;102356.22;;;18.31;nan
66689;BME280;53587;59.318;18.084;2022-07-29T08:34:06;102362.44;;;16.36;nan
66689;BME280;53587;59.318;18.084;2022-07-29T08:36:32;102377.03;;;19.00;nan
66689;BME280;53587;59.318;18.084;2022-07-29T08:38:58;102364.78;;;19.40;nan
66689;BME280;53587;59.318;18.084;2022-07-29T08:41:23;102361.06;;;17.73;nan
66689;BME280;53587;59.318;18.084;2022-07-29T08:43:49;102367.38;;;16.34;nan
66689;BME280;53587;59.318;18.084;2022-07-29T08:46:16;102358.88;;;19.59;nan
66689;BME280;53587;59.318;18.084;2022-07-29T08:48:42;102357.78;;;19.33;nan
66689;BME280;53587;59.318;18.084;2022-07-29T08:51:07;102356.66;;;16.97;nan
66689;BME280;53587;59.318;18.084;2022-07-29T08:53:33;102358.75;;;15.94;nan
66689;BME280;53587;59.318;18.084;2022-07-29T08:55:59;102363.19;;;18.78;nan
66689;BME280;53587;59.318;18.084;2022-07-29T08:58:25;102363.44;;;19.75;nan
66689;BME280;53587;59.318;18.084;2022-07-29T09:00:54;102359.09;;;18.19;nan
66689;BME280;53587;59.318;18.084;2022-07-29T09:03:20;102360.09;;;16.28;nan
66689;BME280;53587;59.318;18.084;2022-07-29T09:05:46;102364.09;;;19.28;nan
66689;BME280;53587;59.318;18.084;2022-07-29T09:08:12;102362.91;;;19.46;nan
66689;BME280;53587;59.318;18.084;2022-07-29T09:10:38;102362.16;;;17.26;nan
66689;BME280;53587;59.318;18.084;2022-07-29T09:13:03;102356.59;;;15.97;nan
66689;BME280;53587;59.318;18.084;2022-07-29T09:15:28;102359.69;;;18.43;nan
66689;BME280;53587;59.318;18.084;2022-07-29T09:17:53;102356.97;;;19.59;nan
66689;BME280;53587;59.318;18.084;2022-07-29T09:20:21;102355.56;;;18.63;nan
66689;BME280;53587;59.318;18.084;2022-07-29T09:22:47;102356.13;;;16.47;nan
66689;BME280;53587;59.318;18.084;2022-07-29T09:25:14;102364.00;;;15.84;nan
66689;BME280;53587;59.318;18.084;2022-07-29T09:27:39;102349.19;;;19.29;nan
66689;BME280;53587;59.318;18.084;2022-07-29T09:30:06;102349.50;;;19.33;nan
66689;BME280;53587;59.318;18.084;2022-07-29T09:32:32;102342.19;;;17.18;nan
66689;BME280;53587;59.318;18.084;2022-07-29T09:35:14;102358.91;;;16.88;nan
66689;BME280;53587;59.318;18.084;2022-07-29T09:37:40;102348.94;;;19.63;nan
66689;BME280;53587;59.318;18.084;2022-07-29T09:40:15;102360.00;;;19.08;nan
66689;BME280;53587;59.318;18.084;2022-07-29T09:42:40;102347.13;;;16.64;nan
66689;BME280;53587;59.318;18.084;2022-07-29T09:45:06;102350.34;;;18.44;nan
66689;BME280;53587;59.318;18.084;2022-07-29T09:47:45;102342.53;;;19.85;nan
66689;BME280;53587;59.318;18.084;2022-07-29T09:50:11;102346.28;;;18.30;nan
66689;BME280;53587;59.318;18.084;2022-07-29T09:52:47;102345.59;;;16.20;nan
66689;BME280;53587;59.318;18.084;2022-07-29T09:55:12;102344.84;;;17.42;nan
66689;BME280;53587;59.318;18.084;2022-07-29T09:57:38;102354.13;;;19.54;nan
66689;BME280;53587;59.318;18.084;2022-07-29T10:00:04;102353.84;;;19.01;nan
66689;BME280;53587;59.318;18.084;2022-07-29T10:02:32;102344.47;;;16.69;nan
66689;BME280;53587;59.318;18.084;2022-07-29T10:04:58;102351.00;;;15.73;nan
66689;BME280;53587;59.318;18.084;2022-07-29T10:07:24;102347.84;;;18.65;nan
66689;BME280;53587;59.318;18.084;2022-07-29T10:09:58;102350.09;;;19.67;nan
66689;BME280;53587;59.318;18.084;2022-07-29T10:12:24;102335.44;;;18.45;nan
66689;BME280;53587;59.318;18.084;2022-07-29T10:14:49;102347.72;;;16.42;nan
66689;BME280;53587;59.318;18.084;2022-07-29T10:17:15;102345.69;;;16.49;nan
66689;BME280;53587;59.318;18.084;2022-07-29T10:19:40;102347.91;;;19.42;nan
66689;BME280;53587;59.318;18.084;2022-07-29T10:22:07;102343.66;;;19.29;nan
66689;BME280;53587;59.318;18.084;2022-07-29T10:24:33;102345.38;;;16.98;nan
66689;BME280;53587;59.318;18.084;2022-07-29T10:26:59;102349.03;;;17.62;nan
66689;BME280;53587;59.318;18.084;2022-07-29T10:29:25;102351.16;;;19.61;nan
66689;BME280;53587;59.318;18.084;2022-07-29T10:32:10;102345.75;;;18.72;nan
66689;BME280;53587;59.318;18.084;2022-07-29T10:37:49;102353.06;;;17.25;nan
66689;BME280;53587;59.318;18.084;2022-07-29T10:43:24;102336.91;;;18.31;nan
66689;BME280;53587;59.318;18.084;2022-07-29T10:45:56;102341.72;;;16.69;nan
66689;BME280;53587;59.318;18.084;2022-07-29T10:48:22;102345.25;;;16.17;nan
66689;BME280;53587;59.318;18.084;2022-07-29T10:53:20;102339.91;;;19.13;nan
66689;BME280;53587;59.318;18.084;2022-07-29T10:55:45;102326.16;;;17.78;nan
66689;BME280;53587;59.318;18.084;2022-07-29T10:58:17;102327.06;;;16.28;nan
66689;BME280;53587;59.318;18.084;2022-07-29T11:00:43;102330.13;;;15.72;nan
66689;BME280;53587;59.318;18.084;2022-07-29T11:03:09;102323.84;;;16.19;nan
66689;BME280;53587;59.318;18.084;2022-07-29T11:05:53;102332.09;;;18.43;nan
66689;BME280;53587;59.318;18.084;2022-07-29T11:08:19;102322.94;;;19.04;nan
66689;BME280;53587;59.318;18.084;2022-07-29T11:10:48;102327.91;;;17.84;nan
66689;BME280;53587;59.318;18.084;2022-07-29T11:13:31;102319.16;;;16.07;nan
66689;BME280;53587;59.318;18.084;2022-07-29T11:15:58;102315.53;;;15.71;nan
66689;BME280;53587;59.318;18.084;2022-07-29T11:18:24;102323.44;;;18.79;nan
66689;BME280;53587;59.318;18.084;2022-07-29T11:20:49;102313.72;;;19.21;nan
66689;BME280;53587;59.318;18.084;2022-07-29T11:23:28;102311.53;;;17.61;nan
66689;BME280;53587;59.318;18.084;2022-07-29T11:31:32;102310.41;;;19.19;nan
66689;BME280;53587;59.318;18.084;2022-07-29T11:34:43;102313.50;;;19.00;nan
66689;BME280;53587;59.318;18.084;2022-07-29T11:39:28;102312.16;;;15.57;nan
66689;BME280;53587;59.318;18.084;2022-07-29T11:41:54;102318.28;;;17.36;nan
66689;BME280;53587;59.318;18.084;2022-07-29T11:47:23;102320.63;;;18.12;nan
66689;BME280;53587;59.318;18.084;2022-07-29T11:49:49;102315.59;;;16.07;nan
66689;BME280;53587;59.318;18.084;2022-07-29T11:52:16;102322.06;;;15.46;nan
66689;BME280;53587;59.318;18.084;2022-07-29T11:54:42;102317.22;;;17.71;nan
66689;BME280;53587;59.318;18.084;2022-07-29T11:57:07;102321.88;;;19.33;nan
66689;BME280;53587;59.318;18.084;2022-07-29T11:59:38;102316.25;;;18.78;nan
66689;BME280;53587;59.318;18.084;2022-07-29T12:02:04;102316.97;;;16.57;nan
66689;BME280;53587;59.318;18.084;2022-07-29T12:04:29;102305.59;;;15.58;nan
66689;BME280;53587;59.318;18.084;2022-07-29T12:06:55;102313.91;;;16.82;nan
66689;BME280;53587;59.318;18.084;2022-07-29T12:09:21;102308.06;;;19.05;nan
66689;BME280;53587;59.318;18.084;2022-07-29T12:11:46;102306.56;;;18.75;nan
66689;BME280;53587;59.318;18.084;2022-07-29T12:14:28;102308.84;;;16.62;nan
66689;BME280;53587;59.318;18.084;2022-07-29T12:16:53;102310.38;;;15.51;nan
66689;BME280;53587;59.318;18.084;2022-07-29T12:19:19;102306.31;;;16.61;nan
66689;BME280;53587;59.318;18.084;2022-07-29T12:21:48;102309.31;;;18.97;nan
66689;BME280;53587;59.318;18.084;2022-07-29T12:24:13;102306.38;;;19.04;nan
66689;BME280;53587;59.318;18.084;2022-07-29T12:26:49;102303.56;;;17.30;nan
66689;BME280;53587;59.318;18.084;2022-07-29T12:29:17;102307.16;;;15.66;nan
66689;BME280;53587;59.318;18.084;2022-07-29T12:31:43;102300.78;;;15.42;nan
66689;BME280;53587;59.318;18.084;2022-07-29T12:34:09;102303.09;;;18.63;nan
66689;BME280;53587;59.318;18.084;2022-07-29T12:36:35;102300.84;;;19.31;nan
66689;BME280;53587;59.318;18.084;2022-07-29T12:39:01;102291.97;;;17.79;nan
66689;BME280;53587;59.318;18.084;2022-07-29T12:41:27;102293.91;;;15.75;nan
66689;BME280;53587;59.318;18.084;2022-07-29T12:43:53;102295.25;;;16.84;nan
66689;BME280;53587;59.318;18.084;2022-07-29T12:46:19;102307.00;;;19.11;nan
66689;BME280;53587;59.318;18.084;2022-07-29T12:48:44;102300.97;;;18.70;nan
66689;BME280;53587;59.318;18.084;2022-07-29T12:51:10;102293.41;;;16.49;nan
66689;BME280;53587;59.318;18.084;2022-07-29T12:53:36;102297.38;;;15.58;nan
66689;BME280;53587;59.318;18.084;2022-07-29T12:56:02;102300.28;;;15.99;nan
66689;BME280;53587;59.318;18.084;2022-07-29T12:58:40;102300.25;;;18.80;nan
66689;BME280;53587;59.318;18.084;2022-07-29T13:01:09;102295.88;;;19.06;nan
66689;BME280;53587;59.318;18.084;2022-07-29T13:03:55;102286.00;;;17.19;nan
66689;BME280;53587;59.318;18.084;2022-07-29T13:06:29;102292.44;;;15.60;nan
66689;BME280;53587;59.318;18.084;2022-07-29T13:11:50;102281.28;;;19.11;nan
66689;BME280;53587;59.318;18.084;2022-07-29T13:14:38;102274.50;;;17.57;nan
66689;BME280;53587;59.318;18.084;2022-07-29T13:17:08;102275.44;;;15.82;nan
66689;BME280;53587;59.318;18.084;2022-07-29T13:21:59;102286.19;;;19.31;nan
66689;BME280;53587;59.318;18.084;2022-07-29T13:24:24;102276.91;;;18.21;nan
66689;BME280;53587;59.318;18.084;2022-07-29T13:26:49;102285.56;;;16.17;nan
66689;BME280;53587;59.318;18.084;2022-07-29T13:29:16;102283.88;;;15.57;nan
66689;BME280;53587;59.318;18.084;2022-07-29T13:31:41;102277.91;;;18.81;nan
66689;BME280;53587;59.318;18.084;2022-07-29T13:34:06;102277.31;;;19.29;nan